Buoy 51523

sailwx.info

Track history (hours):
 
Tides and Currents Weather Stations Pressure Air Temp Water Temp Dewpoint Dewpoint Depression Visibility Wind Speed Wind Dir Waves Ship Positions

Drifting buoy 51523

Last reported at 2015-Aug-31 04:00 UTC. Time now 2015-Aug-31 06:47 UTC.
Position N 17°25' W 168°36'.

Water temperature 28.6 ° C

Date/timePositionNaut miles runAvg speedWind from/ knotsBaromVisibWave heightAir tempDewpointWater temp
2015-Aug-31 04:00N 17°25' W 168°36'0 0.0 28.6
2015-Aug-31 03:45N 17°25' W 168°36'1 0.3 28.6
2015-Aug-31 00:00N 17°24' W 168°36'0 0.0 28.4
2015-Aug-30 23:45N 17°24' W 168°36'1 0.5 28.3
2015-Aug-30 21:45N 17°24' W 168°36'0 0.0 28.2
2015-Aug-30 20:45N 17°24' W 168°36'1 0.4 28.1
2015-Aug-30 17:00N 17°24' W 168°34'3 1.4 28.0
2015-Aug-30 15:00N 17°26' W 168°33'2 1.0 28.1
2015-Aug-30 12:45N 17°28' W 168°34'5 1.1 28.1
2015-Aug-30 08:15N 17°31' W 168°38'1 0.6 28.2
2015-Aug-30 05:45N 17°31' W 168°40'1 1.1 28.3
2015-Aug-30 04:45N 17°30' W 168°40'1 2.5 28.3
2015-Aug-30 04:15N 17°30' W 168°42'1 2.8 28.3
2015-Aug-30 04:00N 17°30' W 168°42'0 0.0 28.3
2015-Aug-30 03:00N 17°30' W 168°42'0 0.0 28.3
2015-Aug-30 02:00N 17°30' W 168°42'0 0.2 28.4
2015-Aug-30 01:45N 17°30' W 168°42'1 0.4 28.3
2015-Aug-30 00:15N 17°30' W 168°43'0 0.0 28.2
2015-Aug-30 00:00N 17°30' W 168°43'2 0.4 28.2
2015-Aug-29 17:15N 17°28' W 168°44'0 0.0 27.9
2015-Aug-29 17:00N 17°28' W 168°44'1 0.6 27.9
2015-Aug-29 16:00N 17°28' W 168°44'0 0.0 27.9
2015-Aug-29 15:45N 17°28' W 168°44'4 1.6 27.9
2015-Aug-29 13:00N 17°31' W 168°40'311.4 27.9
2015-Aug-29 12:45N 17°28' W 168°42'3 0.8 27.9
2015-Aug-29 08:45N 17°31' W 168°41'2 0.5 27.9
2015-Aug-29 04:45N 17°33' W 168°40'1 2.0 27.9
2015-Aug-29 04:15N 17°34' W 168°40'1 0.6 27.9
2015-Aug-29 02:00N 17°36' W 168°40'6 1.2 27.9
2015-Aug-28 20:45N 17°42' W 168°42'0 0.0 27.8
2015-Aug-28 20:30N 17°42' W 168°42'3 5.8 27.8
2015-Aug-28 20:00N 17°43' W 168°45'1 0.3 27.8
2015-Aug-28 17:00N 17°42' W 168°46'6 1.6 27.9
2015-Aug-28 13:00N 17°38' W 168°51'0 0.0 27.9
2015-Aug-28 09:00N 17°38' W 168°51'1 0.8 28.0
2015-Aug-28 08:15N 17°37' W 168°51'1 5.3 28.1
2015-Aug-28 08:00N 17°37' W 168°49'0 0.0 28.1
2015-Aug-28 07:30N 17°37' W 168°49'1 2.0 28.1
2015-Aug-28 06:45N 17°37' W 168°51'3 1.8 28.1
2015-Aug-28 05:15N 17°35' W 168°49'0 0.0 28.2
2015-Aug-28 05:00N 17°35' W 168°49'1 1.3 28.3
2015-Aug-28 04:30N 17°34' W 168°49'1 2.3 28.3
2015-Aug-28 04:15N 17°33' W 168°49'0 0.0 28.3
2015-Aug-28 04:00N 17°33' W 168°49'2 7.9 28.3
2015-Aug-28 03:45N 17°33' W 168°47'0 0.0 28.3
2015-Aug-28 02:45N 17°33' W 168°47'0 0.0 28.4
2015-Aug-28 02:15N 17°33' W 168°47'0 0.0 28.4
2015-Aug-28 02:00N 17°33' W 168°47'1 1.0 28.5
2015-Aug-28 00:30N 17°32' W 168°46'10 1.6 28.5
2015-Aug-27 18:30N 17°40' W 168°40'0 0.0 28.6
2015-Aug-27 18:15N 17°40' W 168°40'6 1.1 28.7
2015-Aug-27 13:15N 17°44' W 168°36'0 0.0 28.7
2015-Aug-27 09:30N 17°44' W 168°36'0 0.0 28.8
2015-Aug-27 09:15N 17°44' W 168°36'1 3.0 28.8
2015-Aug-27 08:45N 17°45' W 168°35'0 0.0 28.8
2015-Aug-27 08:30N 17°45' W 168°35'1 1.4 28.8
2015-Aug-27 07:45N 17°46' W 168°34'4 1.0 28.8
2015-Aug-27 04:00N 17°49' W 168°33'2 1.7 28.8
2015-Aug-27 03:00N 17°51' W 168°32'6 0.8 28.9
2015-Aug-26 19:45N 17°57' W 168°30'1 0.4 28.8
2015-Aug-26 17:00N 17°58' W 168°30'3 0.3 28.9
2015-Aug-26 09:45N 18°00' W 168°29'2 1.3 28.9
2015-Aug-26 08:00N 18°02' W 168°27'1 0.5 28.9
2015-Aug-26 05:00N 18°03' W 168°26'2 0.8 29.0
2015-Aug-26 02:30N 18°04' W 168°25'2 1.3 29.0
2015-Aug-26 00:45N 18°06' W 168°23'2 0.6 29.0
2015-Aug-25 21:45N 18°07' W 168°23'0 0.0 29.0
2015-Aug-25 20:15N 18°07' W 168°23'0 0.0 29.0
2015-Aug-25 20:00N 18°07' W 168°23'1 0.3 29.0
2015-Aug-25 17:45N 18°08' W 168°23'0 0.0 29.0
2015-Aug-25 17:30N 18°08' W 168°23'0 0.3 29.0
2015-Aug-25 16:00N 18°08' W 168°22'0 0.0 29.0
2015-Aug-25 15:45N 18°08' W 168°22'3 0.9 29.0
2015-Aug-25 12:00N 18°10' W 168°19'0 0.1 29.1
2015-Aug-25 08:30N 18°09' W 168°19'1 0.7 29.1
2015-Aug-25 06:45N 18°09' W 168°18'1 0.5 29.1
2015-Aug-25 05:00N 18°09' W 168°17'0 0.3 29.2
2015-Aug-25 03:30N 18°09' W 168°17'2 8.5 29.3
2015-Aug-25 03:15N 18°09' W 168°15'0 0.0 29.3
2015-Aug-25 02:45N 18°09' W 168°15'0 0.1 29.3
2015-Aug-25 01:15N 18°10' W 168°15'0 0.0 29.3
2015-Aug-25 01:00N 18°10' W 168°15'5 0.7 29.3
2015-Aug-24 18:15N 18°11' W 168°10'0 0.0 29.0
2015-Aug-24 16:45N 18°11' W 168°10'1 1.7 29.0
2015-Aug-24 16:00N 18°11' W 168°09'2 0.3 29.0
2015-Aug-24 08:45N 18°11' W 168°07'0 0.0 29.1
2015-Aug-24 08:30N 18°11' W 168°07'3 0.8 29.1
2015-Aug-24 04:00N 18°11' W 168°03'1 2.6 29.1
2015-Aug-24 03:45N 18°11' W 168°04'7 0.9 29.1
2015-Aug-23 20:00N 18°10' W 167°57'1 0.4 29.0
2015-Aug-23 17:00N 18°11' W 167°56'0 0.0 29.0
2015-Aug-23 16:45N 18°11' W 167°56'1 2.2 29.0
2015-Aug-23 16:15N 18°10' W 167°55'1 0.5 29.0
2015-Aug-23 14:00N 18°10' W 167°54'5 0.8 29.1
2015-Aug-23 08:15N 18°12' W 167°49'0 0.0 29.3
2015-Aug-23 06:15N 18°12' W 167°49'1 4.8 29.3
2015-Aug-23 06:00N 18°12' W 167°48'2 0.3 29.3
2015-Aug-23 01:30N 18°11' W 167°47'1 4.6 29.4
2015-Aug-23 01:15N 18°11' W 167°46'1 0.8 29.4
2015-Aug-22 23:45N 18°12' W 167°45'2 0.3 29.2
2015-Aug-22 16:00N 18°13' W 167°43'1 1.1 28.9
2015-Aug-22 14:45N 18°12' W 167°42'3 0.6 29.0
2015-Aug-22 08:45N 18°12' W 167°38'0 0.0 29.1
2015-Aug-22 08:30N 18°12' W 167°38'2 3.0 29.1
2015-Aug-22 07:45N 18°13' W 167°36'0 0.0 29.1
2015-Aug-22 05:00N 18°13' W 167°36'0 1.9 29.2
2015-Aug-22 04:45N 18°13' W 167°36'0 0.0 29.2
2015-Aug-22 04:00N 18°13' W 167°36'0 1.7 29.2
2015-Aug-22 03:45N 18°13' W 167°36'0 0.0 29.2
2015-Aug-22 03:15N 18°13' W 167°36'0 0.0 29.3
2015-Aug-22 03:00N 18°13' W 167°36'2 0.7 29.3
2015-Aug-22 00:00N 18°12' W 167°34'0 0.0 29.2
2015-Aug-21 23:45N 18°12' W 167°34'3 0.8 29.2
2015-Aug-21 20:30N 18°12' W 167°31'1 1.2 29.0
2015-Aug-21 19:45N 18°13' W 167°31'0 0.0 29.0
2015-Aug-21 18:15N 18°13' W 167°31'2 1.0 29.0
2015-Aug-21 16:00N 18°14' W 167°28'0 0.0 29.0
2015-Aug-21 15:45N 18°14' W 167°28'0 0.0 29.0
2015-Aug-21 15:00N 18°14' W 167°28'3 0.6 29.0
2015-Aug-21 09:00N 18°13' W 167°25'0 0.0 29.2
2015-Aug-21 08:45N 18°13' W 167°25'1 1.5 29.2
2015-Aug-21 08:00N 18°13' W 167°24'   29.2
Track history (hours):
 
Tides and Currents Weather Stations Pressure Air Temp Water Temp Dewpoint Dewpoint Depression Visibility Wind Speed Wind Dir Waves Ship Positions

Drifting buoy 51523

Last reported at 2015-Aug-31 04:00 UTC. Time now 2015-Aug-31 06:47 UTC.
Position N 17°25' W 168°36'.

Water temperature 28.6 ° C

Date/timePositionNaut miles runAvg speedWind from/ knotsBaromVisibWave heightAir tempDewpointWater temp
2015-Aug-31 04:00N 17°25' W 168°36'0 0.0 28.6
2015-Aug-31 03:45N 17°25' W 168°36'1 0.3 28.6
2015-Aug-31 00:00N 17°24' W 168°36'0 0.0 28.4
2015-Aug-30 23:45N 17°24' W 168°36'1 0.5 28.3
2015-Aug-30 21:45N 17°24' W 168°36'0 0.0 28.2
2015-Aug-30 20:45N 17°24' W 168°36'1 0.4 28.1
2015-Aug-30 17:00N 17°24' W 168°34'3 1.4 28.0
2015-Aug-30 15:00N 17°26' W 168°33'2 1.0 28.1
2015-Aug-30 12:45N 17°28' W 168°34'5 1.1 28.1
2015-Aug-30 08:15N 17°31' W 168°38'1 0.6 28.2
2015-Aug-30 05:45N 17°31' W 168°40'1 1.1 28.3
2015-Aug-30 04:45N 17°30' W 168°40'1 2.5 28.3
2015-Aug-30 04:15N 17°30' W 168°42'1 2.8 28.3
2015-Aug-30 04:00N 17°30' W 168°42'0 0.0 28.3
2015-Aug-30 03:00N 17°30' W 168°42'0 0.0 28.3
2015-Aug-30 02:00N 17°30' W 168°42'0 0.2 28.4
2015-Aug-30 01:45N 17°30' W 168°42'1 0.4 28.3
2015-Aug-30 00:15N 17°30' W 168°43'0 0.0 28.2
2015-Aug-30 00:00N 17°30' W 168°43'2 0.4 28.2
2015-Aug-29 17:15N 17°28' W 168°44'0 0.0 27.9
2015-Aug-29 17:00N 17°28' W 168°44'1 0.6 27.9
2015-Aug-29 16:00N 17°28' W 168°44'0 0.0 27.9
2015-Aug-29 15:45N 17°28' W 168°44'4 1.6 27.9
2015-Aug-29 13:00N 17°31' W 168°40'311.4 27.9
2015-Aug-29 12:45N 17°28' W 168°42'3 0.8 27.9
2015-Aug-29 08:45N 17°31' W 168°41'2 0.5 27.9
2015-Aug-29 04:45N 17°33' W 168°40'1 2.0 27.9
2015-Aug-29 04:15N 17°34' W 168°40'1 0.6 27.9
2015-Aug-29 02:00N 17°36' W 168°40'6 1.2 27.9
2015-Aug-28 20:45N 17°42' W 168°42'0 0.0 27.8
2015-Aug-28 20:30N 17°42' W 168°42'3 5.8 27.8
2015-Aug-28 20:00N 17°43' W 168°45'1 0.3 27.8
2015-Aug-28 17:00N 17°42' W 168°46'6 1.6 27.9
2015-Aug-28 13:00N 17°38' W 168°51'0 0.0 27.9
2015-Aug-28 09:00N 17°38' W 168°51'1 0.8 28.0
2015-Aug-28 08:15N 17°37' W 168°51'1 5.3 28.1
2015-Aug-28 08:00N 17°37' W 168°49'0 0.0 28.1
2015-Aug-28 07:30N 17°37' W 168°49'1 2.0 28.1
2015-Aug-28 06:45N 17°37' W 168°51'3 1.8 28.1
2015-Aug-28 05:15N 17°35' W 168°49'0 0.0 28.2
2015-Aug-28 05:00N 17°35' W 168°49'1 1.3 28.3
2015-Aug-28 04:30N 17°34' W 168°49'1 2.3 28.3
2015-Aug-28 04:15N 17°33' W 168°49'0 0.0 28.3
2015-Aug-28 04:00N 17°33' W 168°49'2 7.9 28.3
2015-Aug-28 03:45N 17°33' W 168°47'0 0.0 28.3
2015-Aug-28 02:45N 17°33' W 168°47'0 0.0 28.4
2015-Aug-28 02:15N 17°33' W 168°47'0 0.0 28.4
2015-Aug-28 02:00N 17°33' W 168°47'1 1.0 28.5
2015-Aug-28 00:30N 17°32' W 168°46'10 1.6 28.5
2015-Aug-27 18:30N 17°40' W 168°40'0 0.0 28.6
2015-Aug-27 18:15N 17°40' W 168°40'6 1.1 28.7
2015-Aug-27 13:15N 17°44' W 168°36'0 0.0 28.7
2015-Aug-27 09:30N 17°44' W 168°36'0 0.0 28.8
2015-Aug-27 09:15N 17°44' W 168°36'1 3.0 28.8
2015-Aug-27 08:45N 17°45' W 168°35'0 0.0 28.8
2015-Aug-27 08:30N 17°45' W 168°35'1 1.4 28.8
2015-Aug-27 07:45N 17°46' W 168°34'4 1.0 28.8
2015-Aug-27 04:00N 17°49' W 168°33'2 1.7 28.8
2015-Aug-27 03:00N 17°51' W 168°32'6 0.8 28.9
2015-Aug-26 19:45N 17°57' W 168°30'1 0.4 28.8
2015-Aug-26 17:00N 17°58' W 168°30'3 0.3 28.9
2015-Aug-26 09:45N 18°00' W 168°29'2 1.3 28.9
2015-Aug-26 08:00N 18°02' W 168°27'1 0.5 28.9
2015-Aug-26 05:00N 18°03' W 168°26'2 0.8 29.0
2015-Aug-26 02:30N 18°04' W 168°25'2 1.3 29.0
2015-Aug-26 00:45N 18°06' W 168°23'2 0.6 29.0
2015-Aug-25 21:45N 18°07' W 168°23'0 0.0 29.0
2015-Aug-25 20:15N 18°07' W 168°23'0 0.0 29.0
2015-Aug-25 20:00N 18°07' W 168°23'1 0.3 29.0
2015-Aug-25 17:45N 18°08' W 168°23'0 0.0 29.0
2015-Aug-25 17:30N 18°08' W 168°23'0 0.3 29.0
2015-Aug-25 16:00N 18°08' W 168°22'0 0.0 29.0
2015-Aug-25 15:45N 18°08' W 168°22'3 0.9 29.0
2015-Aug-25 12:00N 18°10' W 168°19'0 0.1 29.1
2015-Aug-25 08:30N 18°09' W 168°19'1 0.7 29.1
2015-Aug-25 06:45N 18°09' W 168°18'1 0.5 29.1
2015-Aug-25 05:00N 18°09' W 168°17'0 0.3 29.2
2015-Aug-25 03:30N 18°09' W 168°17'2 8.5 29.3
2015-Aug-25 03:15N 18°09' W 168°15'0 0.0 29.3
2015-Aug-25 02:45N 18°09' W 168°15'0 0.1 29.3
2015-Aug-25 01:15N 18°10' W 168°15'0 0.0 29.3
2015-Aug-25 01:00N 18°10' W 168°15'5 0.7 29.3
2015-Aug-24 18:15N 18°11' W 168°10'0 0.0 29.0
2015-Aug-24 16:45N 18°11' W 168°10'1 1.7 29.0
2015-Aug-24 16:00N 18°11' W 168°09'2 0.3 29.0
2015-Aug-24 08:45N 18°11' W 168°07'0 0.0 29.1
2015-Aug-24 08:30N 18°11' W 168°07'3 0.8 29.1
2015-Aug-24 04:00N 18°11' W 168°03'1 2.6 29.1
2015-Aug-24 03:45N 18°11' W 168°04'7 0.9 29.1
2015-Aug-23 20:00N 18°10' W 167°57'1 0.4 29.0
2015-Aug-23 17:00N 18°11' W 167°56'0 0.0 29.0
2015-Aug-23 16:45N 18°11' W 167°56'1 2.2 29.0
2015-Aug-23 16:15N 18°10' W 167°55'1 0.5 29.0
2015-Aug-23 14:00N 18°10' W 167°54'5 0.8 29.1
2015-Aug-23 08:15N 18°12' W 167°49'0 0.0 29.3
2015-Aug-23 06:15N 18°12' W 167°49'1 4.8 29.3
2015-Aug-23 06:00N 18°12' W 167°48'2 0.3 29.3
2015-Aug-23 01:30N 18°11' W 167°47'1 4.6 29.4
2015-Aug-23 01:15N 18°11' W 167°46'1 0.8 29.4
2015-Aug-22 23:45N 18°12' W 167°45'2 0.3 29.2
2015-Aug-22 16:00N 18°13' W 167°43'1 1.1 28.9
2015-Aug-22 14:45N 18°12' W 167°42'3 0.6 29.0
2015-Aug-22 08:45N 18°12' W 167°38'0 0.0 29.1
2015-Aug-22 08:30N 18°12' W 167°38'2 3.0 29.1
2015-Aug-22 07:45N 18°13' W 167°36'0 0.0 29.1
2015-Aug-22 05:00N 18°13' W 167°36'0 1.9 29.2
2015-Aug-22 04:45N 18°13' W 167°36'0 0.0 29.2
2015-Aug-22 04:00N 18°13' W 167°36'0 1.7 29.2
2015-Aug-22 03:45N 18°13' W 167°36'0 0.0 29.2
2015-Aug-22 03:15N 18°13' W 167°36'0 0.0 29.3
2015-Aug-22 03:00N 18°13' W 167°36'2 0.7 29.3
2015-Aug-22 00:00N 18°12' W 167°34'0 0.0 29.2
2015-Aug-21 23:45N 18°12' W 167°34'3 0.8 29.2
2015-Aug-21 20:30N 18°12' W 167°31'1 1.2 29.0
2015-Aug-21 19:45N 18°13' W 167°31'0 0.0 29.0
2015-Aug-21 18:15N 18°13' W 167°31'2 1.0 29.0
2015-Aug-21 16:00N 18°14' W 167°28'0 0.0 29.0
2015-Aug-21 15:45N 18°14' W 167°28'0 0.0 29.0
2015-Aug-21 15:00N 18°14' W 167°28'3 0.6 29.0
2015-Aug-21 09:00N 18°13' W 167°25'0 0.0 29.2
2015-Aug-21 08:45N 18°13' W 167°25'1 1.5 29.2
2015-Aug-21 08:00N 18°13' W 167°24'   29.2

Dump ship's entire track history